createdAt,value
2017-10-10T00:00:14.474Z,0
2017-10-10T00:01:10.461Z,0
2017-10-10T00:02:10.807Z,0
2017-10-10T00:03:10.444Z,0
2017-10-10T00:04:10.478Z,0
2017-10-10T00:05:10.835Z,0
2017-10-10T00:06:10.118Z,0
2017-10-10T00:07:10.458Z,0
2017-10-10T00:08:10.136Z,0
2017-10-10T00:09:10.546Z,0
2017-10-10T00:10:10.681Z,0
2017-10-10T00:11:10.439Z,0
2017-10-10T00:12:09.795Z,0
2017-10-10T00:13:10.148Z,0
2017-10-10T00:14:10.119Z,0
2017-10-10T00:15:11.346Z,0
2017-10-10T00:16:10.460Z,0
2017-10-10T00:17:10.726Z,0
2017-10-10T00:18:10.079Z,0
2017-10-10T00:19:10.400Z,0
2017-10-10T00:20:10.928Z,0
2017-10-10T00:21:10.396Z,0
2017-10-10T00:22:10.064Z,0
2017-10-10T00:23:10.727Z,0
2017-10-10T00:24:10.732Z,0
2017-10-10T00:25:11.361Z,0
2017-10-10T00:26:10.704Z,0
2017-10-10T00:27:10.392Z,0
2017-10-10T00:28:10.060Z,0
2017-10-10T00:29:10.411Z,0
2017-10-10T00:30:11.188Z,0
2017-10-10T00:31:10.821Z,0
2017-10-10T00:32:10.394Z,0
2017-10-10T00:33:10.394Z,0
2017-10-10T00:34:10.684Z,0
2017-10-10T00:35:11.081Z,0
2017-10-10T00:36:10.033Z,0
2017-10-10T00:37:10.347Z,0
2017-10-10T00:38:10.355Z,0
2017-10-10T00:39:10.671Z,0
2017-10-10T00:40:10.588Z,0
2017-10-10T00:41:10.379Z,0
2017-10-10T00:42:10.674Z,0
2017-10-10T00:43:10.024Z,0
2017-10-10T00:44:10.684Z,0
2017-10-10T00:45:11.087Z,0
2017-10-10T00:46:09.736Z,0
2017-10-10T00:47:09.998Z,0
2017-10-10T00:48:10.321Z,0
2017-10-10T00:49:09.682Z,0
2017-10-10T00:50:11.601Z,0
2017-10-10T00:51:10.333Z,0
2017-10-10T00:52:10.316Z,0
2017-10-10T00:53:10.321Z,0
2017-10-10T00:54:10.005Z,0
2017-10-10T00:55:11.213Z,0
2017-10-10T00:56:09.332Z,0
2017-10-10T00:57:10.616Z,0
2017-10-10T00:58:10.298Z,0
2017-10-10T00:59:09.974Z,0
2017-10-10T01:00:11.506Z,0
2017-10-10T01:01:14.493Z,0
2017-10-10T01:02:10.611Z,0
2017-10-10T01:03:09.977Z,0
2017-10-10T01:04:10.603Z,0
2017-10-10T01:05:10.128Z,0
2017-10-10T01:06:09.950Z,0
2017-10-10T01:07:09.951Z,0
2017-10-10T01:08:10.597Z,0
2017-10-10T01:09:09.616Z,0
2017-10-10T01:10:11.666Z,0
2017-10-10T01:11:10.267Z,0
2017-10-10T01:12:09.953Z,0
2017-10-10T01:13:10.576Z,0
2017-10-10T01:14:10.575Z,0
2017-10-10T01:15:11.526Z,0
2017-10-10T01:16:10.613Z,0
2017-10-10T01:17:10.254Z,0
2017-10-10T01:18:10.256Z,0
2017-10-10T01:19:10.251Z,0
2017-10-10T01:20:11.026Z,0
2017-10-10T01:21:10.231Z,0
2017-10-10T01:22:09.926Z,0
2017-10-10T01:23:10.552Z,0
2017-10-10T01:24:10.554Z,0
2017-10-10T01:25:10.974Z,0
2017-10-10T01:26:10.549Z,0
2017-10-10T01:27:09.884Z,0
2017-10-10T01:28:10.218Z,0
2017-10-10T01:29:09.237Z,0
2017-10-10T01:30:10.838Z,0
2017-10-10T01:31:11.567Z,0
2017-10-10T01:32:10.528Z,0
2017-10-10T01:33:09.876Z,0
2017-10-10T01:34:09.871Z,0
2017-10-10T01:35:10.793Z,0
2017-10-10T01:36:10.204Z,0
2017-10-10T01:37:10.523Z,0
2017-10-10T01:38:10.511Z,0
2017-10-10T01:39:10.514Z,0
2017-10-10T01:40:10.312Z,0
2017-10-10T01:41:10.180Z,0
2017-10-10T01:42:09.200Z,0
2017-10-10T01:43:10.502Z,0
2017-10-10T01:44:09.832Z,0
2017-10-10T01:45:10.425Z,0
2017-10-10T01:46:09.828Z,0
2017-10-10T01:47:13.668Z,0
2017-10-10T01:48:09.828Z,0
2017-10-10T01:49:10.499Z,0
2017-10-10T01:50:10.345Z,0
2017-10-10T01:51:10.143Z,0
2017-10-10T01:52:09.808Z,0
2017-10-10T01:53:10.133Z,0
2017-10-10T01:54:10.446Z,0
2017-10-10T01:55:11.221Z,0
2017-10-10T01:56:09.163Z,0
2017-10-10T01:57:10.108Z,0
2017-10-10T01:58:09.783Z,0
2017-10-10T01:59:09.458Z,0
2017-10-10T02:00:11.174Z,0
2017-10-10T02:01:09.811Z,0
2017-10-10T02:02:13.622Z,0
2017-10-10T02:03:09.775Z,0
2017-10-10T02:04:10.123Z,0
2017-10-10T02:05:10.765Z,0
2017-10-10T02:06:09.775Z,0
2017-10-10T02:07:09.750Z,0
2017-10-10T02:08:09.769Z,0
2017-10-10T02:09:09.756Z,0
2017-10-10T02:10:10.623Z,0
2017-10-10T02:11:09.424Z,0
2017-10-10T02:12:09.733Z,0
2017-10-10T02:13:10.381Z,0
2017-10-10T02:14:10.369Z,0
2017-10-10T02:15:10.612Z,0
2017-10-10T02:16:09.735Z,0
2017-10-10T02:17:09.471Z,0
2017-10-10T02:18:09.414Z,0
2017-10-10T02:19:10.053Z,0
2017-10-10T02:20:11.401Z,0
2017-10-10T02:21:09.477Z,0
2017-10-10T02:22:10.031Z,0
2017-10-10T02:23:10.389Z,0
2017-10-10T02:24:10.029Z,0
2017-10-10T02:25:11.217Z,0
2017-10-10T02:26:10.344Z,0
2017-10-10T02:27:10.040Z,0
2017-10-10T02:28:09.372Z,0
2017-10-10T02:29:10.008Z,0
2017-10-10T02:30:10.344Z,0
2017-10-10T02:31:10.329Z,0
2017-10-10T02:32:11.370Z,0
2017-10-10T02:33:10.001Z,0
2017-10-10T02:34:09.658Z,0
2017-10-10T02:35:10.689Z,0
2017-10-10T02:36:09.979Z,0
2017-10-10T02:37:10.314Z,0
2017-10-10T02:38:09.647Z,0
2017-10-10T02:39:09.648Z,0
2017-10-10T02:40:10.925Z,0
2017-10-10T02:41:09.974Z,0
2017-10-10T02:42:10.325Z,0
2017-10-10T02:43:09.946Z,0
2017-10-10T02:44:09.947Z,0
2017-10-10T02:45:10.106Z,0
2017-10-10T02:46:09.820Z,0
2017-10-10T02:47:09.297Z,0
2017-10-10T02:48:09.942Z,0
2017-10-10T02:49:09.935Z,0
2017-10-10T02:50:10.463Z,0
2017-10-10T02:51:09.921Z,0
2017-10-10T02:52:09.925Z,0
2017-10-10T02:53:09.597Z,0
2017-10-10T02:54:10.250Z,0
2017-10-10T02:55:10.326Z,0
2017-10-10T02:56:09.950Z,0
2017-10-10T02:57:09.620Z,0
2017-10-10T02:58:09.988Z,0
2017-10-10T02:59:10.230Z,0
2017-10-10T03:00:10.014Z,0
2017-10-10T03:01:09.911Z,0
2017-10-10T03:02:09.892Z,0
2017-10-10T03:03:10.392Z,0
2017-10-10T03:04:10.210Z,0
2017-10-10T03:05:11.020Z,0
2017-10-10T03:06:09.876Z,0
2017-10-10T03:07:09.566Z,0
2017-10-10T03:08:09.880Z,0
2017-10-10T03:09:09.858Z,0
2017-10-10T03:10:10.383Z,0
2017-10-10T03:11:09.224Z,0
2017-10-10T03:12:09.846Z,0
2017-10-10T03:13:09.857Z,0
2017-10-10T03:14:09.853Z,0
2017-10-10T03:15:10.419Z,0
2017-10-10T03:16:09.865Z,0
2017-10-10T03:17:09.530Z,0
2017-10-10T03:18:10.472Z,0
2017-10-10T03:19:10.158Z,0
2017-10-10T03:20:10.350Z,0
2017-10-10T03:21:09.228Z,0
2017-10-10T03:22:09.828Z,0
2017-10-10T03:23:09.552Z,0
2017-10-10T03:24:09.485Z,0
2017-10-10T03:25:10.346Z,0
2017-10-10T03:26:10.120Z,0
2017-10-10T03:27:10.128Z,0
2017-10-10T03:28:09.562Z,0
2017-10-10T03:29:09.153Z,0
2017-10-10T03:30:10.327Z,0
2017-10-10T03:31:09.480Z,0
2017-10-10T03:32:09.507Z,0
2017-10-10T03:33:11.202Z,0
2017-10-10T03:34:09.130Z,0
2017-10-10T03:35:09.167Z,0
2017-10-10T03:36:09.445Z,0
2017-10-10T03:37:09.452Z,0
2017-10-10T03:38:09.767Z,0
2017-10-10T03:39:09.119Z,0
2017-10-10T03:40:09.920Z,0
2017-10-10T03:41:09.446Z,0
2017-10-10T03:42:10.082Z,0
2017-10-10T03:43:09.433Z,0
2017-10-10T03:44:10.067Z,0
2017-10-10T03:45:10.189Z,0
2017-10-10T03:46:10.013Z,0
2017-10-10T03:47:09.256Z,0
2017-10-10T03:48:09.085Z,0
2017-10-10T03:49:09.409Z,0
2017-10-10T03:50:10.873Z,0
2017-10-10T03:51:09.724Z,0
2017-10-10T03:52:09.721Z,0
2017-10-10T03:53:09.393Z,0
2017-10-10T03:54:09.721Z,0
2017-10-10T03:55:09.799Z,0
2017-10-10T03:56:10.039Z,0
2017-10-10T03:57:10.034Z,0
2017-10-10T03:58:09.396Z,0
2017-10-10T03:59:09.438Z,0
2017-10-10T04:00:09.862Z,0
2017-10-10T04:01:10.019Z,0
2017-10-10T04:02:09.692Z,0
2017-10-10T04:03:09.937Z,0
2017-10-10T04:04:09.691Z,0
2017-10-10T04:05:10.244Z,0
2017-10-10T04:06:09.691Z,0
2017-10-10T04:07:09.680Z,0
2017-10-10T04:08:09.669Z,0
2017-10-10T04:09:09.341Z,0
2017-10-10T04:10:10.108Z,0
2017-10-10T04:11:10.010Z,0
2017-10-10T04:12:09.341Z,0
2017-10-10T04:13:09.351Z,0
2017-10-10T04:14:09.962Z,0
2017-10-10T04:15:10.091Z,0
2017-10-10T04:16:09.638Z,0
2017-10-10T04:17:09.324Z,0
2017-10-10T04:18:09.828Z,0
2017-10-10T04:19:08.984Z,0
2017-10-10T04:20:10.523Z,0
2017-10-10T04:21:09.628Z,0
2017-10-10T04:22:09.962Z,0
2017-10-10T04:23:09.617Z,0
2017-10-10T04:24:09.930Z,0
2017-10-10T04:25:10.047Z,0
2017-10-10T04:26:09.612Z,0
2017-10-10T04:27:09.597Z,0
2017-10-10T04:28:09.927Z,0
2017-10-10T04:29:09.596Z,0
2017-10-10T04:30:10.081Z,0
2017-10-10T04:31:09.935Z,0
2017-10-10T04:32:09.260Z,0
2017-10-10T04:33:10.152Z,0
2017-10-10T04:34:09.596Z,0
2017-10-10T04:35:10.052Z,0
2017-10-10T04:36:09.323Z,0
2017-10-10T04:37:09.583Z,0
2017-10-10T04:38:09.585Z,0
2017-10-10T04:39:09.577Z,0
2017-10-10T04:40:10.351Z,0
2017-10-10T04:41:09.259Z,0
2017-10-10T04:42:09.893Z,0
2017-10-10T04:43:09.243Z,0
2017-10-10T04:44:09.553Z,0
2017-10-10T04:45:10.403Z,0
2017-10-10T04:46:09.224Z,0
2017-10-10T04:47:09.538Z,0
2017-10-10T04:48:13.547Z,0
2017-10-10T04:49:09.227Z,0
2017-10-10T04:50:09.636Z,0
2017-10-10T04:51:09.208Z,0
2017-10-10T04:52:09.214Z,0
2017-10-10T04:53:09.521Z,0
2017-10-10T04:54:09.207Z,0
2017-10-10T04:55:09.579Z,0
2017-10-10T04:56:09.507Z,0
2017-10-10T04:57:09.822Z,0
2017-10-10T04:58:09.844Z,0
2017-10-10T04:59:09.182Z,0
2017-10-10T05:00:10.221Z,0
2017-10-10T05:01:09.830Z,0
2017-10-10T05:02:08.843Z,0
2017-10-10T05:03:10.470Z,0
2017-10-10T05:04:09.526Z,0
2017-10-10T05:05:09.921Z,0
2017-10-10T05:06:09.480Z,0
2017-10-10T05:07:09.165Z,0
2017-10-10T05:08:09.500Z,0
2017-10-10T05:09:09.191Z,0
2017-10-10T05:10:09.549Z,0
2017-10-10T05:11:09.784Z,0
2017-10-10T05:12:09.789Z,0
2017-10-10T05:13:09.132Z,0
2017-10-10T05:14:09.454Z,0
2017-10-10T05:15:09.890Z,0
2017-10-10T05:16:09.449Z,0
2017-10-10T05:17:09.758Z,0
2017-10-10T05:18:09.443Z,0
2017-10-10T05:19:11.609Z,0
2017-10-10T05:20:09.854Z,0
2017-10-10T05:21:09.105Z,0
2017-10-10T05:22:09.754Z,0
2017-10-10T05:23:09.746Z,0
2017-10-10T05:24:09.117Z,0
2017-10-10T05:25:10.196Z,0
2017-10-10T05:26:09.773Z,0
2017-10-10T05:27:09.728Z,0
2017-10-10T05:28:09.729Z,0
2017-10-10T05:29:09.419Z,0
2017-10-10T05:30:10.320Z,0
2017-10-10T05:31:09.737Z,0
2017-10-10T05:32:09.734Z,0
2017-10-10T05:33:09.403Z,0
2017-10-10T05:34:11.251Z,0
2017-10-10T05:35:09.458Z,0
2017-10-10T05:36:09.402Z,0
2017-10-10T05:37:09.086Z,0
2017-10-10T05:38:09.392Z,0
2017-10-10T05:39:09.060Z,0
2017-10-10T05:40:10.281Z,0
2017-10-10T05:41:09.376Z,0
2017-10-10T05:42:09.054Z,5
2017-10-10T05:43:09.389Z,5
2017-10-10T05:44:09.693Z,5
2017-10-10T05:45:09.791Z,5
2017-10-10T05:46:08.741Z,5
2017-10-10T05:47:09.038Z,5
2017-10-10T05:48:08.709Z,5
2017-10-10T05:49:11.955Z,5
2017-10-10T05:50:09.049Z,10
2017-10-10T05:51:09.354Z,10
2017-10-10T05:52:09.045Z,10
2017-10-10T05:53:08.703Z,10
2017-10-10T05:54:09.025Z,10
2017-10-10T05:55:09.427Z,10
2017-10-10T05:56:09.659Z,15
2017-10-10T05:57:09.010Z,15
2017-10-10T05:58:09.679Z,15
2017-10-10T05:59:09.334Z,15
2017-10-10T06:00:09.784Z,20
2017-10-10T06:01:09.330Z,20
2017-10-10T06:02:09.664Z,20
2017-10-10T06:03:08.998Z,20
2017-10-10T06:04:08.997Z,20
2017-10-10T06:05:15.269Z,25
2017-10-10T06:06:09.001Z,25
2017-10-10T06:07:09.304Z,25
2017-10-10T06:08:09.325Z,25
2017-10-10T06:09:09.307Z,25
2017-10-10T06:10:10.038Z,30
2017-10-10T06:11:09.630Z,30
2017-10-10T06:12:09.321Z,30
2017-10-10T06:13:09.629Z,30
2017-10-10T06:14:09.313Z,30
2017-10-10T06:15:10.085Z,30
2017-10-10T06:16:09.331Z,25
2017-10-10T06:17:09.338Z,25
2017-10-10T06:18:09.622Z,25
2017-10-10T06:19:09.289Z,25
2017-10-10T06:20:11.197Z,25
2017-10-10T06:21:09.596Z,25
2017-10-10T06:22:08.963Z,25
2017-10-10T06:23:08.949Z,25
2017-10-10T06:24:08.981Z,25
2017-10-10T06:25:10.025Z,25
2017-10-10T06:26:09.593Z,30
2017-10-10T06:27:09.587Z,30
2017-10-10T06:28:09.259Z,30
2017-10-10T06:29:09.599Z,30
2017-10-10T06:30:09.623Z,35
2017-10-10T06:31:08.606Z,35
2017-10-10T06:32:08.286Z,35
2017-10-10T06:33:08.934Z,35
2017-10-10T06:34:09.569Z,40
2017-10-10T06:35:12.675Z,40
2017-10-10T06:36:08.927Z,40
2017-10-10T06:37:08.936Z,40
2017-10-10T06:38:09.570Z,40
2017-10-10T06:39:08.916Z,40
2017-10-10T06:40:09.870Z,45
2017-10-10T06:41:08.908Z,45
2017-10-10T06:42:09.252Z,45
2017-10-10T06:43:09.556Z,50
2017-10-10T06:44:09.575Z,50
2017-10-10T06:45:09.624Z,50
2017-10-10T06:46:09.212Z,50
2017-10-10T06:47:09.534Z,50
2017-10-10T06:48:09.240Z,50
2017-10-10T06:49:08.241Z,50
2017-10-10T06:50:09.972Z,50
2017-10-10T06:51:11.185Z,50
2017-10-10T06:52:09.531Z,50
2017-10-10T06:53:09.537Z,55
2017-10-10T06:54:08.893Z,55
2017-10-10T06:55:09.222Z,55
2017-10-10T06:56:08.881Z,60
2017-10-10T06:57:09.517Z,60
2017-10-10T06:58:08.893Z,60
2017-10-10T06:59:09.187Z,60
2017-10-10T07:00:09.939Z,60
2017-10-10T07:01:08.541Z,60
2017-10-10T07:02:09.192Z,60
2017-10-10T07:03:08.227Z,55
2017-10-10T07:04:08.542Z,55
2017-10-10T07:05:09.576Z,55
2017-10-10T07:06:14.525Z,55
2017-10-10T07:07:09.199Z,55
2017-10-10T07:08:08.852Z,60
2017-10-10T07:09:08.845Z,60
2017-10-10T07:10:09.590Z,60
2017-10-10T07:11:08.851Z,60
2017-10-10T07:12:09.168Z,60
2017-10-10T07:13:09.164Z,60
2017-10-10T07:14:09.162Z,65
2017-10-10T07:15:09.916Z,60
2017-10-10T07:16:08.849Z,60
2017-10-10T07:17:08.838Z,60
2017-10-10T07:18:08.834Z,60
2017-10-10T07:19:08.835Z,60
2017-10-10T07:20:09.191Z,65
2017-10-10T07:21:09.467Z,65
2017-10-10T07:22:09.141Z,65
2017-10-10T07:23:08.818Z,65
2017-10-10T07:24:09.456Z,65
2017-10-10T07:25:08.334Z,70
2017-10-10T07:26:09.484Z,70
2017-10-10T07:27:08.488Z,65
2017-10-10T07:28:08.494Z,65
2017-10-10T07:29:09.464Z,65
2017-10-10T07:30:09.534Z,60
2017-10-10T07:31:09.130Z,60
2017-10-10T07:32:09.146Z,55
2017-10-10T07:33:09.114Z,55
2017-10-10T07:34:09.130Z,55
2017-10-10T07:35:09.870Z,55
2017-10-10T07:36:10.168Z,55
2017-10-10T07:37:09.112Z,55
2017-10-10T07:38:09.127Z,60
2017-10-10T07:39:09.114Z,60
2017-10-10T07:40:09.483Z,60
2017-10-10T07:41:09.099Z,65
2017-10-10T07:42:09.095Z,65
2017-10-10T07:43:08.127Z,70
2017-10-10T07:44:09.096Z,75
2017-10-10T07:45:09.488Z,75
2017-10-10T07:46:09.107Z,80
2017-10-10T07:47:09.434Z,80
2017-10-10T07:48:08.772Z,75
2017-10-10T07:49:09.109Z,75
2017-10-10T07:50:09.414Z,75
2017-10-10T07:51:09.167Z,75
2017-10-10T07:52:08.752Z,75
2017-10-10T07:53:08.419Z,75
2017-10-10T07:54:09.074Z,75
2017-10-10T07:55:09.446Z,75
2017-10-10T07:56:09.059Z,75
2017-10-10T07:57:08.747Z,80
2017-10-10T07:58:08.750Z,80
2017-10-10T07:59:09.078Z,85
2017-10-10T08:00:09.444Z,90
2017-10-10T08:01:09.219Z,95
2017-10-10T08:02:09.387Z,95
2017-10-10T08:03:09.058Z,95
2017-10-10T08:04:09.391Z,95
2017-10-10T08:05:09.762Z,100
2017-10-10T08:06:09.534Z,100
2017-10-10T08:07:09.049Z,100
2017-10-10T08:08:09.074Z,100
2017-10-10T08:09:09.046Z,105
2017-10-10T08:10:09.818Z,105
2017-10-10T08:11:09.055Z,105
2017-10-10T08:12:08.742Z,105
2017-10-10T08:13:09.393Z,110
2017-10-10T08:14:09.396Z,115
2017-10-10T08:15:09.401Z,115
2017-10-10T08:16:08.698Z,115
2017-10-10T08:17:09.057Z,120
2017-10-10T08:18:09.358Z,125
2017-10-10T08:19:09.358Z,125
2017-10-10T08:20:09.757Z,125
2017-10-10T08:21:09.045Z,125
2017-10-10T08:22:13.550Z,125
2017-10-10T08:23:08.728Z,130
2017-10-10T08:24:08.689Z,130
2017-10-10T08:25:09.033Z,130
2017-10-10T08:26:08.707Z,135
2017-10-10T08:27:09.075Z,135
2017-10-10T08:28:09.345Z,140
2017-10-10T08:29:09.035Z,150
2017-10-10T08:30:09.727Z,150
2017-10-10T08:31:09.010Z,165
2017-10-10T08:32:08.365Z,180
2017-10-10T08:33:08.682Z,185
2017-10-10T08:34:08.693Z,185
2017-10-10T08:35:09.386Z,180
2017-10-10T08:36:08.355Z,175
2017-10-10T08:37:12.710Z,175
2017-10-10T08:38:08.686Z,180
2017-10-10T08:39:08.682Z,190
2017-10-10T08:40:09.748Z,190
2017-10-10T08:41:08.381Z,195
2017-10-10T08:42:09.006Z,205
2017-10-10T08:43:09.031Z,210
2017-10-10T08:44:08.995Z,225
2017-10-10T08:45:09.049Z,220
2017-10-10T08:46:09.007Z,220
2017-10-10T08:47:09.003Z,210
2017-10-10T08:48:08.993Z,210
2017-10-10T08:49:08.997Z,220
2017-10-10T08:50:09.708Z,220
2017-10-10T08:51:09.318Z,220
2017-10-10T08:52:08.997Z,215
2017-10-10T08:53:08.345Z,195
2017-10-10T08:54:08.668Z,180
2017-10-10T08:55:09.364Z,175
2017-10-10T08:56:08.345Z,165
2017-10-10T08:57:09.008Z,155
2017-10-10T08:58:09.315Z,150
2017-10-10T08:59:08.673Z,150
2017-10-10T09:00:09.039Z,150
2017-10-10T09:01:08.356Z,150
2017-10-10T09:02:09.317Z,140
2017-10-10T09:03:08.673Z,140
2017-10-10T09:04:09.312Z,130
2017-10-10T09:05:09.349Z,130
2017-10-10T09:06:09.005Z,125
2017-10-10T09:07:09.020Z,125
2017-10-10T09:08:10.418Z,130
2017-10-10T09:09:08.689Z,135
2017-10-10T09:10:08.944Z,140
2017-10-10T09:11:08.672Z,140
2017-10-10T09:12:08.352Z,140
2017-10-10T09:13:08.674Z,140
2017-10-10T09:14:09.585Z,145
2017-10-10T09:15:09.438Z,145
2017-10-10T09:16:08.998Z,145
2017-10-10T09:17:08.986Z,145
2017-10-10T09:18:09.391Z,145
2017-10-10T09:19:09.008Z,145
2017-10-10T09:20:09.048Z,140
2017-10-10T09:21:09.332Z,135
2017-10-10T09:22:09.312Z,130
2017-10-10T09:23:09.299Z,120
2017-10-10T09:24:08.685Z,115
2017-10-10T09:25:09.054Z,110
2017-10-10T09:26:08.707Z,105
2017-10-10T09:27:08.350Z,100
2017-10-10T09:28:09.312Z,100
2017-10-10T09:29:09.314Z,100
2017-10-10T09:30:09.403Z,105
2017-10-10T09:31:08.682Z,110
2017-10-10T09:32:09.334Z,115
2017-10-10T09:33:08.944Z,115
2017-10-10T09:34:09.013Z,120
2017-10-10T09:35:08.983Z,120
2017-10-10T09:36:08.679Z,125
2017-10-10T09:37:08.669Z,125
2017-10-10T09:38:10.097Z,130
2017-10-10T09:39:08.680Z,130
2017-10-10T09:40:09.459Z,140
2017-10-10T09:41:08.691Z,145
2017-10-10T09:42:08.997Z,145
2017-10-10T09:43:09.000Z,145
2017-10-10T09:44:09.328Z,145
2017-10-10T09:45:09.792Z,145
2017-10-10T09:46:08.687Z,145
2017-10-10T09:47:08.352Z,150
2017-10-10T09:48:09.009Z,150
2017-10-10T09:49:09.320Z,145
2017-10-10T09:50:09.390Z,145
2017-10-10T09:51:09.004Z,145
2017-10-10T09:52:08.673Z,145
2017-10-10T09:53:10.129Z,150
2017-10-10T09:54:09.325Z,160
2017-10-10T09:55:09.736Z,170
2017-10-10T09:56:08.352Z,170
2017-10-10T09:57:08.672Z,165
2017-10-10T09:58:09.016Z,165
2017-10-10T09:59:09.333Z,160
2017-10-10T10:00:09.340Z,160
2017-10-10T10:01:09.006Z,160
2017-10-10T10:02:09.001Z,155
2017-10-10T10:03:08.999Z,155
2017-10-10T10:04:09.311Z,160
2017-10-10T10:05:09.401Z,160
2017-10-10T10:06:09.002Z,165
2017-10-10T10:07:08.669Z,170
2017-10-10T10:08:11.042Z,180
2017-10-10T10:09:09.003Z,190
2017-10-10T10:10:08.971Z,200
2017-10-10T10:11:08.990Z,200
2017-10-10T10:12:09.334Z,205
2017-10-10T10:13:08.376Z,210
2017-10-10T10:14:09.158Z,215
2017-10-10T10:15:09.401Z,225
2017-10-10T10:16:08.688Z,240
2017-10-10T10:17:08.669Z,260
2017-10-10T10:18:08.995Z,270
2017-10-10T10:19:08.688Z,280
2017-10-10T10:20:09.407Z,290
2017-10-10T10:21:08.675Z,295
2017-10-10T10:22:08.992Z,350
2017-10-10T10:23:09.006Z,285
2017-10-10T10:24:09.855Z,290
2017-10-10T10:25:09.042Z,295
2017-10-10T10:26:09.004Z,305
2017-10-10T10:27:09.005Z,305
2017-10-10T10:28:08.681Z,310
2017-10-10T10:29:09.322Z,295
2017-10-10T10:30:09.393Z,275
2017-10-10T10:31:08.706Z,265
2017-10-10T10:32:08.677Z,250
2017-10-10T10:33:09.012Z,245
2017-10-10T10:34:09.009Z,225
2017-10-10T10:35:09.729Z,195
2017-10-10T10:36:08.692Z,180
2017-10-10T10:37:08.694Z,185
2017-10-10T10:38:09.019Z,185
2017-10-10T10:39:09.753Z,185
2017-10-10T10:40:09.396Z,180
2017-10-10T10:41:09.012Z,170
2017-10-10T10:42:09.025Z,165
2017-10-10T10:43:09.030Z,165
2017-10-10T10:44:09.347Z,165
2017-10-10T10:45:09.406Z,155
2017-10-10T10:46:08.741Z,140
2017-10-10T10:47:09.345Z,130
2017-10-10T10:48:09.026Z,125
2017-10-10T10:49:09.029Z,130
2017-10-10T10:50:09.403Z,140
2017-10-10T10:51:08.726Z,140
2017-10-10T10:52:08.714Z,135
2017-10-10T10:53:09.039Z,125
2017-10-10T10:54:09.054Z,115
2017-10-10T10:55:08.752Z,105
2017-10-10T10:56:09.044Z,100
2017-10-10T10:57:09.041Z,100
2017-10-10T10:58:09.374Z,95
2017-10-10T10:59:09.048Z,95
2017-10-10T11:00:09.420Z,95
2017-10-10T11:01:08.720Z,95
2017-10-10T11:02:09.051Z,95
2017-10-10T11:03:09.054Z,90
2017-10-10T11:04:09.388Z,85
2017-10-10T11:05:09.873Z,95
2017-10-10T11:06:08.409Z,100
2017-10-10T11:07:09.048Z,95
2017-10-10T11:08:09.380Z,105
2017-10-10T11:09:10.503Z,125
2017-10-10T11:10:09.805Z,145
2017-10-10T11:11:09.046Z,140
2017-10-10T11:12:09.383Z,145
2017-10-10T11:13:08.739Z,150
2017-10-10T11:14:09.058Z,155
2017-10-10T11:15:09.817Z,155
2017-10-10T11:16:08.749Z,145
2017-10-10T11:17:08.515Z,140
2017-10-10T11:18:09.064Z,130
2017-10-10T11:19:09.062Z,120
2017-10-10T11:20:09.131Z,110
2017-10-10T11:21:08.738Z,105
2017-10-10T11:22:09.456Z,100
2017-10-10T11:23:09.077Z,85
2017-10-10T11:24:09.071Z,75
2017-10-10T11:25:09.399Z,70
2017-10-10T11:26:09.082Z,70
2017-10-10T11:27:08.741Z,65
2017-10-10T11:28:09.408Z,70
2017-10-10T11:29:09.069Z,70
2017-10-10T11:30:09.109Z,75
2017-10-10T11:31:09.066Z,80
2017-10-10T11:32:08.749Z,75
2017-10-10T11:33:08.743Z,80
2017-10-10T11:34:09.401Z,85
2017-10-10T11:35:09.113Z,90
2017-10-10T11:36:09.416Z,95
2017-10-10T11:37:09.403Z,95
2017-10-10T11:38:09.411Z,90
2017-10-10T11:39:09.851Z,80
2017-10-10T11:40:09.853Z,75
2017-10-10T11:41:08.748Z,80
2017-10-10T11:42:09.077Z,75
2017-10-10T11:43:09.408Z,80
2017-10-10T11:44:08.436Z,85
2017-10-10T11:45:09.420Z,90
2017-10-10T11:46:09.091Z,100
2017-10-10T11:47:09.397Z,105
2017-10-10T11:48:09.097Z,110
2017-10-10T11:49:09.081Z,110
2017-10-10T11:50:09.503Z,105
2017-10-10T11:51:08.782Z,105
2017-10-10T11:52:08.753Z,105
2017-10-10T11:53:09.103Z,110
2017-10-10T11:54:09.091Z,110
2017-10-10T11:55:12.358Z,100
2017-10-10T11:56:08.434Z,90
2017-10-10T11:57:09.411Z,80
2017-10-10T11:58:09.154Z,75
2017-10-10T11:59:09.485Z,65
2017-10-10T12:00:09.092Z,65
2017-10-10T12:01:09.160Z,70
2017-10-10T12:02:09.088Z,80
2017-10-10T12:03:09.452Z,85
2017-10-10T12:04:08.787Z,90
2017-10-10T12:05:09.833Z,90
2017-10-10T12:06:09.131Z,90
2017-10-10T12:07:08.783Z,95
2017-10-10T12:08:09.091Z,100
2017-10-10T12:09:09.098Z,100
2017-10-10T12:10:12.424Z,100
2017-10-10T12:11:09.167Z,100
2017-10-10T12:12:09.092Z,100
2017-10-10T12:13:09.438Z,95
2017-10-10T12:14:08.824Z,95
2017-10-10T12:15:09.498Z,95
2017-10-10T12:16:08.825Z,95
2017-10-10T12:17:09.096Z,95
2017-10-10T12:18:09.251Z,100
2017-10-10T12:19:08.780Z,105
2017-10-10T12:20:09.827Z,105
2017-10-10T12:21:09.422Z,110
2017-10-10T12:22:09.109Z,115
2017-10-10T12:23:08.801Z,115
2017-10-10T12:24:08.449Z,120
2017-10-10T12:25:09.548Z,115
2017-10-10T12:26:09.096Z,120
2017-10-10T12:27:09.465Z,130
2017-10-10T12:28:08.808Z,135
2017-10-10T12:29:09.100Z,135
2017-10-10T12:30:09.076Z,135
2017-10-10T12:31:09.103Z,130
2017-10-10T12:32:09.104Z,125
2017-10-10T12:33:08.781Z,115
2017-10-10T12:34:08.470Z,110
2017-10-10T12:35:09.441Z,115
2017-10-10T12:36:09.339Z,125
2017-10-10T12:37:08.783Z,135
2017-10-10T12:38:08.795Z,145
2017-10-10T12:39:09.102Z,145
2017-10-10T12:40:13.227Z,140
2017-10-10T12:41:08.783Z,130
2017-10-10T12:42:09.116Z,125
2017-10-10T12:43:09.428Z,120
2017-10-10T12:44:09.092Z,115
2017-10-10T12:45:09.923Z,105
2017-10-10T12:46:09.117Z,100
2017-10-10T12:47:09.118Z,95
2017-10-10T12:48:09.127Z,95
2017-10-10T12:49:08.474Z,95
2017-10-10T12:50:09.059Z,105
2017-10-10T12:51:09.113Z,110
2017-10-10T12:52:08.777Z,110
2017-10-10T12:53:08.485Z,115
2017-10-10T12:54:09.168Z,120
2017-10-10T12:55:09.550Z,120
2017-10-10T12:56:09.097Z,120
2017-10-10T12:57:09.100Z,125
2017-10-10T12:58:09.426Z,125
2017-10-10T12:59:09.436Z,125
2017-10-10T13:00:09.233Z,125
2017-10-10T13:01:08.849Z,125
2017-10-10T13:02:08.868Z,120
2017-10-10T13:03:08.865Z,120
2017-10-10T13:04:09.113Z,120
2017-10-10T13:05:09.552Z,120
2017-10-10T13:06:09.464Z,120
2017-10-10T13:07:09.441Z,115
2017-10-10T13:08:09.490Z,115
2017-10-10T13:09:08.525Z,115
2017-10-10T13:10:09.891Z,110
2017-10-10T13:11:12.084Z,105
2017-10-10T13:12:09.456Z,105
2017-10-10T13:13:09.439Z,105
2017-10-10T13:14:08.804Z,105
2017-10-10T13:15:09.557Z,105
2017-10-10T13:16:08.525Z,110
2017-10-10T13:17:08.497Z,120
2017-10-10T13:18:08.810Z,130
2017-10-10T13:19:08.803Z,140
2017-10-10T13:20:09.540Z,145
2017-10-10T13:21:09.114Z,140
2017-10-10T13:22:09.123Z,130
2017-10-10T13:23:08.806Z,115
2017-10-10T13:24:09.133Z,100
2017-10-10T13:25:09.567Z,100
2017-10-10T13:26:09.177Z,95
2017-10-10T13:27:09.129Z,95
2017-10-10T13:28:08.804Z,95
2017-10-10T13:29:09.126Z,95
2017-10-10T13:30:09.893Z,90
2017-10-10T13:31:09.116Z,90
2017-10-10T13:32:08.831Z,95
2017-10-10T13:33:08.805Z,100
2017-10-10T13:34:09.190Z,105
2017-10-10T13:35:10.197Z,105
2017-10-10T13:36:09.008Z,105
2017-10-10T13:37:09.453Z,105
2017-10-10T13:38:09.206Z,105
2017-10-10T13:39:09.201Z,100
2017-10-10T13:40:09.397Z,95
2017-10-10T13:41:09.893Z,85
2017-10-10T13:42:09.630Z,80
2017-10-10T13:43:09.140Z,75
2017-10-10T13:44:09.059Z,70
2017-10-10T13:45:09.136Z,75
2017-10-10T13:46:08.471Z,85
2017-10-10T13:47:08.793Z,95
2017-10-10T13:48:08.472Z,105
2017-10-10T13:49:08.809Z,105
2017-10-10T13:50:09.035Z,105
2017-10-10T13:51:09.148Z,100
2017-10-10T13:52:08.803Z,100
2017-10-10T13:53:09.159Z,100
2017-10-10T13:54:09.286Z,105
2017-10-10T13:55:09.390Z,115
2017-10-10T13:56:09.699Z,115
2017-10-10T13:57:08.728Z,115
2017-10-10T13:58:09.368Z,110
2017-10-10T13:59:09.308Z,115
2017-10-10T14:00:09.477Z,125
2017-10-10T14:01:09.244Z,130
2017-10-10T14:02:09.135Z,130
2017-10-10T14:03:09.765Z,125
2017-10-10T14:04:08.927Z,125
2017-10-10T14:05:09.441Z,120
2017-10-10T14:06:09.394Z,115
2017-10-10T14:07:09.725Z,120
2017-10-10T14:08:09.520Z,130
2017-10-10T14:09:10.292Z,135
2017-10-10T14:10:09.680Z,135
2017-10-10T14:11:08.915Z,125
2017-10-10T14:12:11.681Z,120
2017-10-10T14:13:09.483Z,110
2017-10-10T14:14:10.068Z,105
2017-10-10T14:15:08.520Z,100
2017-10-10T14:16:09.713Z,95
2017-10-10T14:17:09.733Z,90